createdAt,value
2022-08-18T00:01:23.262Z,60.80
2022-08-18T00:03:57.249Z,60.31
2022-08-18T00:06:31.709Z,60.33
2022-08-18T00:09:02.964Z,60.49
2022-08-18T00:11:40.522Z,60.81
2022-08-18T00:14:10.063Z,60.57
2022-08-18T00:16:36.676Z,60.61
2022-08-18T00:19:08.715Z,60.62
2022-08-18T00:21:36.318Z,60.81
2022-08-18T00:24:03.334Z,60.30
2022-08-18T00:26:34.814Z,60.98
2022-08-18T00:29:04.116Z,60.71
2022-08-18T00:31:31.768Z,60.47
2022-08-18T00:33:58.590Z,60.87
2022-08-18T00:36:25.723Z,60.80
2022-08-18T00:38:52.764Z,60.68
2022-08-18T00:41:20.489Z,60.73
2022-08-18T00:43:49.191Z,60.57
2022-08-18T00:46:18.421Z,60.53
2022-08-18T00:48:48.411Z,60.60
2022-08-18T00:51:25.097Z,60.55
2022-08-18T00:53:59.074Z,60.62
2022-08-18T00:56:28.881Z,60.59
2022-08-18T00:59:04.993Z,60.46
2022-08-18T01:01:33.153Z,60.67
2022-08-18T01:04:03.273Z,60.20
2022-08-18T01:06:37.861Z,60.37
2022-08-18T01:09:04.538Z,60.49
2022-08-18T01:11:34.353Z,60.70
2022-08-18T01:14:01.159Z,60.54
2022-08-18T01:16:57.028Z,60.52
2022-08-18T01:19:44.838Z,60.90
2022-08-18T01:22:16.784Z,60.58
2022-08-18T01:25:01.922Z,60.97
2022-08-18T01:27:32.356Z,60.73
2022-08-18T01:30:03.953Z,60.67
2022-08-18T01:32:31.050Z,60.94
2022-08-18T01:34:58.199Z,60.46
2022-08-18T01:37:25.135Z,60.79
2022-08-18T01:41:24.475Z,60.70
2022-08-18T01:42:39.964Z,60.82
2022-08-18T01:45:08.353Z,60.73
2022-08-18T01:47:48.129Z,60.55
2022-08-18T01:50:16.186Z,60.24
2022-08-18T01:52:43.059Z,60.51
2022-08-18T01:55:10.291Z,60.58
2022-08-18T01:57:43.309Z,60.53
2022-08-18T02:00:12.605Z,60.30
2022-08-18T02:02:40.068Z,60.54
2022-08-18T02:05:09.531Z,60.23
2022-08-18T02:07:37.509Z,60.54
2022-08-18T02:10:07.333Z,60.19
2022-08-18T02:12:39.793Z,59.98
2022-08-18T02:15:08.261Z,60.45
2022-08-18T02:17:38.672Z,60.17
2022-08-18T02:20:06.849Z,60.95
2022-08-18T02:22:33.632Z,60.40
2022-08-18T02:25:00.566Z,60.60
2022-08-18T02:27:27.766Z,60.51
2022-08-18T02:29:54.561Z,60.37
2022-08-18T02:32:21.338Z,60.50
2022-08-18T02:34:48.204Z,60.57
2022-08-18T02:37:15.709Z,60.63
2022-08-18T02:39:42.721Z,60.58
2022-08-18T02:42:09.575Z,60.13
2022-08-18T02:44:36.429Z,60.71
2022-08-18T02:47:03.284Z,60.64
2022-08-18T02:49:30.104Z,60.32
2022-08-18T02:51:56.912Z,60.48
2022-08-18T02:54:24.240Z,60.59
2022-08-18T02:56:52.017Z,60.56
2022-08-18T02:59:20.748Z,60.41
2022-08-18T03:01:49.938Z,60.88
2022-08-18T03:04:22.030Z,60.43
2022-08-18T03:06:54.446Z,60.91
2022-08-18T03:09:21.736Z,60.59
2022-08-18T03:11:53.119Z,60.52
2022-08-18T03:14:20.158Z,60.45
2022-08-18T03:16:53.737Z,60.26
2022-08-18T03:19:23.626Z,60.62
2022-08-18T03:21:50.473Z,60.66
2022-08-18T03:24:22.331Z,60.47
2022-08-18T03:26:50.481Z,60.58
2022-08-18T03:29:17.352Z,60.94
2022-08-18T03:31:44.896Z,60.34
2022-08-18T03:34:12.457Z,60.60
2022-08-18T03:36:39.645Z,60.90
2022-08-18T03:39:07.781Z,60.77
2022-08-18T03:41:43.677Z,60.77
2022-08-18T03:44:23.437Z,60.55
2022-08-18T03:46:51.420Z,60.43
2022-08-18T03:49:18.822Z,60.44
2022-08-18T03:51:49.311Z,60.30
2022-08-18T03:54:17.334Z,60.62
2022-08-18T03:56:45.257Z,60.78
2022-08-18T03:59:14.111Z,60.41
2022-08-18T04:01:42.480Z,60.63
2022-08-18T04:04:11.482Z,60.66
2022-08-18T04:06:41.312Z,60.53
2022-08-18T04:09:10.208Z,60.43
2022-08-18T04:11:38.269Z,60.15
2022-08-18T04:14:05.655Z,60.47
2022-08-18T04:16:33.591Z,60.27
2022-08-18T04:19:03.504Z,60.33
2022-08-18T04:21:35.035Z,60.69
2022-08-18T04:24:05.360Z,60.39
2022-08-18T04:26:33.040Z,60.31
2022-08-18T04:29:03.380Z,60.47
2022-08-18T04:31:31.228Z,60.48
2022-08-18T04:33:59.113Z,60.88
2022-08-18T04:36:26.680Z,60.75
2022-08-18T04:38:54.329Z,60.42
2022-08-18T04:41:27.785Z,60.52
2022-08-18T04:43:58.602Z,60.57
2022-08-18T04:46:26.367Z,60.70
2022-08-18T04:48:53.268Z,60.30
2022-08-18T04:52:34.540Z,60.61
2022-08-18T04:54:07.934Z,60.66
2022-08-18T04:56:37.190Z,60.39
2022-08-18T04:59:08.563Z,60.64
2022-08-18T05:01:37.341Z,60.36
2022-08-18T05:04:04.267Z,60.53
2022-08-18T05:06:31.469Z,60.39
2022-08-18T05:09:00.386Z,60.90
2022-08-18T05:11:34.835Z,60.76
2022-08-18T05:14:05.876Z,60.38
2022-08-18T05:16:47.933Z,60.23
2022-08-18T05:19:17.208Z,60.58
2022-08-18T05:21:50.694Z,60.22
2022-08-18T05:24:19.366Z,60.53
2022-08-18T05:26:46.650Z,60.88
2022-08-18T05:29:18.538Z,60.53
2022-08-18T05:31:46.681Z,60.41
2022-08-18T05:34:13.584Z,60.60
2022-08-18T05:36:46.953Z,61.20
2022-08-18T05:39:19.633Z,60.29
2022-08-18T05:41:49.611Z,60.90
2022-08-18T05:44:19.046Z,61.04
2022-08-18T05:46:50.769Z,60.71
2022-08-18T05:49:18.254Z,60.88
2022-08-18T05:51:52.917Z,60.88
2022-08-18T05:54:39.644Z,60.90
2022-08-18T05:57:11.195Z,61.03
2022-08-18T05:59:39.611Z,60.84
2022-08-18T06:02:08.032Z,60.66
2022-08-18T06:04:40.174Z,60.88
2022-08-18T06:07:09.910Z,60.76
2022-08-18T06:09:40.698Z,60.39
2022-08-18T06:12:17.574Z,60.30
2022-08-18T06:14:44.775Z,60.87
2022-08-18T06:17:14.294Z,60.71
2022-08-18T06:19:56.354Z,60.36
2022-08-18T06:22:34.109Z,60.67
2022-08-18T06:25:15.902Z,61.03
2022-08-18T06:27:59.594Z,60.94
2022-08-18T06:30:47.472Z,60.76
2022-08-18T06:33:32.718Z,61.06
2022-08-18T06:36:04.942Z,60.89
2022-08-18T06:38:39.366Z,60.94
2022-08-18T06:41:41.632Z,60.95
2022-08-18T06:44:10.075Z,60.84
2022-08-18T06:46:54.186Z,60.74
2022-08-18T06:49:32.738Z,60.74
2022-08-18T06:51:59.409Z,60.33
2022-08-18T06:54:28.253Z,60.59
2022-08-18T06:56:56.003Z,60.28
2022-08-18T06:59:28.516Z,60.71
2022-08-18T07:02:01.722Z,61.01
2022-08-18T07:04:31.447Z,60.69
2022-08-18T07:06:59.182Z,60.79
2022-08-18T07:09:33.108Z,60.57
2022-08-18T07:12:02.320Z,60.60
2022-08-18T07:14:29.272Z,60.76
2022-08-18T07:17:09.426Z,61.14
2022-08-18T07:19:36.680Z,60.95
2022-08-18T07:22:06.852Z,61.09
2022-08-18T07:24:37.616Z,60.81
2022-08-18T07:27:04.334Z,60.78
2022-08-18T07:29:32.923Z,61.13
2022-08-18T07:32:02.436Z,61.19
2022-08-18T07:34:37.320Z,60.59
2022-08-18T07:37:18.793Z,60.60
2022-08-18T07:39:51.172Z,60.37
2022-08-18T07:42:53.998Z,60.96
2022-08-18T07:45:30.601Z,60.53
2022-08-18T07:48:20.798Z,60.65
2022-08-18T07:51:18.410Z,60.25
2022-08-18T07:53:55.696Z,60.67
2022-08-18T07:56:38.026Z,60.74
2022-08-18T07:59:31.081Z,60.74
2022-08-18T08:02:00.643Z,60.77
2022-08-18T08:04:34.492Z,60.69
2022-08-18T08:07:32.225Z,60.88
2022-08-18T08:09:52.164Z,60.90
2022-08-18T08:12:29.501Z,60.33
2022-08-18T08:15:01.314Z,60.58
2022-08-18T08:17:34.410Z,60.98
2022-08-18T08:20:10.329Z,60.76
2022-08-18T08:22:55.515Z,60.66
2022-08-18T08:25:45.930Z,60.48
2022-08-18T08:28:31.716Z,60.40
2022-08-18T08:34:06.287Z,61.25
2022-08-18T08:36:38.233Z,60.86
2022-08-18T08:39:26.217Z,61.13
2022-08-18T08:42:29.252Z,60.70
2022-08-18T08:45:00.206Z,60.72
2022-08-18T08:47:30.369Z,61.10
2022-08-18T08:50:17.320Z,61.02
2022-08-18T08:52:47.856Z,60.76
2022-08-18T08:55:17.392Z,61.01
2022-08-18T08:58:13.299Z,60.66
2022-08-18T09:00:41.208Z,60.26
2022-08-18T09:03:14.366Z,60.75
2022-08-18T09:05:43.974Z,60.42
2022-08-18T09:08:28.994Z,60.54
2022-08-18T09:11:01.636Z,60.33
2022-08-18T09:13:47.255Z,60.79
2022-08-18T09:19:13.914Z,60.11
2022-08-18T09:21:45.092Z,60.63
2022-08-18T09:24:18.727Z,60.31
2022-08-18T09:27:05.299Z,60.34
2022-08-18T09:29:37.553Z,59.90
2022-08-18T09:32:24.073Z,60.05
2022-08-18T09:35:06.202Z,60.02
2022-08-18T09:37:50.318Z,59.87
2022-08-18T09:41:01.910Z,59.78
2022-08-18T09:43:28.015Z,60.12
2022-08-18T09:45:58.102Z,59.64
2022-08-18T09:48:42.975Z,59.51
2022-08-18T09:51:17.737Z,59.94
2022-08-18T09:53:47.701Z,60.05
2022-08-18T09:56:15.371Z,59.49
2022-08-18T09:59:11.126Z,59.02
2022-08-18T10:01:39.991Z,58.85
2022-08-18T10:04:21.813Z,58.83
2022-08-18T10:07:14.705Z,58.14
2022-08-18T10:10:01.978Z,57.93
2022-08-18T10:12:54.670Z,58.22
2022-08-18T10:18:16.563Z,58.70
2022-08-18T10:21:24.613Z,58.59
2022-08-18T10:24:14.691Z,58.21
2022-08-18T10:26:54.026Z,57.49
2022-08-18T10:29:27.613Z,57.35
2022-08-18T10:34:53.148Z,56.86
2022-08-18T10:37:35.090Z,56.51
2022-08-18T10:40:13.714Z,56.90
2022-08-18T10:42:44.581Z,57.00
2022-08-18T10:45:24.454Z,57.02
2022-08-18T10:48:33.560Z,56.68
2022-08-18T10:51:21.304Z,57.15
2022-08-18T10:53:50.095Z,56.96
2022-08-18T10:56:31.856Z,56.98
2022-08-18T10:59:16.034Z,57.09
2022-08-18T11:01:43.434Z,56.35
2022-08-18T11:04:34.514Z,56.47
2022-08-18T11:07:09.424Z,55.91
2022-08-18T11:09:41.419Z,56.30
2022-08-18T11:12:09.327Z,55.99
2022-08-18T11:14:45.556Z,55.76
2022-08-18T11:17:26.388Z,55.57
2022-08-18T11:19:53.865Z,55.82
2022-08-18T11:22:34.167Z,55.63
2022-08-18T11:25:03.203Z,56.10
2022-08-18T11:27:34.206Z,55.64
2022-08-18T11:30:03.538Z,55.87
2022-08-18T11:32:31.698Z,56.12
2022-08-18T11:34:58.779Z,55.85
2022-08-18T11:37:27.261Z,55.45
2022-08-18T11:39:55.488Z,55.59
2022-08-18T11:42:33.518Z,55.52
2022-08-18T11:45:24.739Z,55.46
2022-08-18T11:48:00.595Z,55.30
2022-08-18T11:50:28.817Z,55.21
2022-08-18T11:52:57.223Z,54.75
2022-08-18T11:55:36.333Z,54.73
2022-08-18T11:58:05.663Z,54.62
2022-08-18T12:00:53.765Z,54.29
2022-08-18T12:03:20.456Z,54.99
2022-08-18T12:05:56.059Z,54.85
2022-08-18T12:11:41.263Z,54.82
2022-08-18T12:14:30.540Z,54.88
2022-08-18T12:16:57.836Z,54.90
2022-08-18T12:19:28.592Z,54.98
2022-08-18T12:22:00.255Z,54.74
2022-08-18T12:24:36.695Z,54.75
2022-08-18T12:27:20.391Z,55.17
2022-08-18T12:29:48.753Z,54.43
2022-08-18T12:32:18.007Z,54.36
2022-08-18T12:35:09.134Z,54.47
2022-08-18T12:40:26.721Z,54.70
2022-08-18T12:42:55.855Z,54.31
2022-08-18T12:45:41.574Z,54.16
2022-08-18T12:48:09.476Z,53.54
2022-08-18T12:50:50.195Z,53.96
2022-08-18T12:53:30.537Z,53.98
2022-08-18T12:56:15.613Z,53.91
2022-08-18T12:58:46.647Z,53.86
2022-08-18T13:01:13.377Z,54.22
2022-08-18T13:03:45.599Z,53.50
2022-08-18T13:06:31.457Z,53.89
2022-08-18T13:08:58.166Z,53.73
2022-08-18T13:11:25.181Z,53.97
2022-08-18T13:13:55.976Z,53.58
2022-08-18T13:16:38.578Z,52.59
2022-08-18T13:19:07.172Z,52.55
2022-08-18T13:21:39.146Z,52.34
2022-08-18T13:24:09.480Z,51.43
2022-08-18T13:26:39.226Z,51.81
2022-08-18T13:29:10.270Z,52.01
2022-08-18T13:31:38.201Z,52.52
2022-08-18T13:34:11.680Z,52.47
2022-08-18T13:36:46.206Z,52.65
2022-08-18T13:39:15.917Z,52.77
2022-08-18T13:41:45.566Z,52.56
2022-08-18T13:44:18.983Z,52.50
2022-08-18T13:46:46.929Z,52.07
2022-08-18T13:49:18.374Z,52.43
2022-08-18T13:51:51.616Z,51.81
2022-08-18T13:54:31.043Z,51.79
2022-08-18T13:56:58.908Z,52.55
2022-08-18T13:59:27.526Z,51.80
2022-08-18T14:01:54.798Z,51.56
2022-08-18T14:04:23.224Z,51.49
2022-08-18T14:06:56.967Z,51.56
2022-08-18T14:09:36.247Z,51.88
2022-08-18T14:12:21.473Z,51.85
2022-08-18T14:14:53.560Z,51.76
2022-08-18T14:17:22.633Z,51.64
2022-08-18T14:20:10.254Z,51.77
2022-08-18T14:22:56.128Z,52.02
2022-08-18T14:25:41.508Z,51.78
2022-08-18T14:28:11.928Z,51.24
2022-08-18T14:30:39.268Z,51.23
2022-08-18T14:33:07.942Z,51.09
2022-08-18T14:36:06.175Z,50.94
2022-08-18T14:38:35.771Z,50.71
2022-08-18T14:41:04.463Z,50.75
2022-08-18T14:44:10.288Z,50.93
2022-08-18T14:48:49.020Z,49.98
2022-08-18T14:51:15.950Z,50.18
2022-08-18T14:53:43.981Z,50.10
2022-08-18T14:56:12.510Z,50.30
2022-08-18T14:58:41.134Z,50.73
2022-08-18T15:01:11.518Z,49.97
2022-08-18T15:03:39.191Z,50.31
2022-08-18T15:06:06.844Z,50.38
2022-08-18T15:08:35.715Z,49.81
2022-08-18T15:11:03.720Z,49.88
2022-08-18T15:13:30.628Z,49.79
2022-08-18T15:16:02.057Z,50.13
2022-08-18T15:18:33.436Z,50.36
2022-08-18T15:21:35.529Z,49.92
2022-08-18T15:24:24.630Z,50.13
2022-08-18T15:27:06.053Z,50.24
2022-08-18T15:29:33.506Z,50.16
2022-08-18T15:32:02.343Z,50.11
2022-08-18T15:34:46.357Z,50.19
2022-08-18T15:37:14.612Z,49.56
2022-08-18T15:39:41.437Z,49.41
2022-08-18T15:42:09.857Z,49.48
2022-08-18T15:44:37.271Z,48.68
2022-08-18T15:47:09.342Z,48.71
2022-08-18T15:49:36.350Z,49.36
2022-08-18T15:52:03.324Z,49.51
2022-08-18T15:54:30.161Z,49.50
2022-08-18T15:56:58.831Z,49.61
2022-08-18T15:59:34.209Z,49.75
2022-08-18T16:02:06.634Z,49.15
2022-08-18T16:04:38.550Z,49.32
2022-08-18T16:07:05.495Z,49.51
2022-08-18T16:09:32.190Z,49.26
2022-08-18T16:12:00.531Z,49.01
2022-08-18T16:14:27.351Z,49.10
2022-08-18T16:16:57.269Z,48.94
2022-08-18T16:19:25.741Z,49.51
2022-08-18T16:21:56.889Z,49.35
2022-08-18T16:24:26.545Z,48.78
2022-08-18T16:26:53.261Z,49.10
2022-08-18T16:29:20.047Z,48.31
2022-08-18T16:31:46.797Z,48.16
2022-08-18T16:34:13.499Z,47.75
2022-08-18T16:36:40.288Z,48.33
2022-08-18T16:39:07.483Z,48.68
2022-08-18T16:41:35.964Z,48.57
2022-08-18T16:44:02.782Z,48.61
2022-08-18T16:46:29.728Z,48.52
2022-08-18T16:48:57.787Z,48.09
2022-08-18T16:51:26.271Z,48.15
2022-08-18T16:53:53.672Z,47.63
2022-08-18T16:56:22.066Z,47.46
2022-08-18T16:59:07.158Z,47.64
2022-08-18T17:01:52.356Z,48.45
2022-08-18T17:04:22.729Z,48.51
2022-08-18T17:06:50.538Z,48.30
2022-08-18T17:09:17.793Z,48.28
2022-08-18T17:11:51.307Z,47.17
2022-08-18T17:14:19.869Z,48.01
2022-08-18T17:16:46.871Z,48.10
2022-08-18T17:19:13.571Z,48.38
2022-08-18T17:21:41.192Z,48.43
2022-08-18T17:24:11.392Z,48.56
2022-08-18T17:26:56.767Z,47.57
2022-08-18T17:29:32.882Z,47.83
2022-08-18T17:32:02.388Z,47.50
2022-08-18T17:34:42.164Z,47.33
2022-08-18T17:37:10.357Z,47.94
2022-08-18T17:39:40.785Z,48.07
2022-08-18T17:42:25.941Z,47.50
2022-08-18T17:44:54.686Z,47.36
2022-08-18T17:47:33.620Z,46.97
2022-08-18T17:50:28.222Z,47.91
2022-08-18T17:53:05.637Z,47.86
2022-08-18T17:55:39.632Z,47.05
2022-08-18T17:58:29.845Z,47.12
2022-08-18T18:00:56.574Z,47.63
2022-08-18T18:03:23.578Z,47.15
2022-08-18T18:05:55.398Z,46.61
2022-08-18T18:08:45.416Z,47.05
2022-08-18T18:11:12.267Z,47.23
2022-08-18T18:13:40.327Z,47.45
2022-08-18T18:16:21.237Z,46.52
2022-08-18T18:19:01.129Z,46.61
2022-08-18T18:22:00.600Z,46.49
2022-08-18T18:24:15.706Z,46.90
2022-08-18T18:26:48.562Z,46.88
2022-08-18T18:29:21.241Z,46.60
2022-08-18T18:31:58.191Z,47.27
2022-08-18T18:34:30.439Z,47.62
2022-08-18T18:36:58.412Z,47.52
2022-08-18T18:39:34.038Z,47.78
2022-08-18T18:42:11.025Z,48.48
2022-08-18T18:44:37.763Z,48.53
2022-08-18T18:47:09.429Z,48.67
2022-08-18T18:49:43.397Z,48.83
2022-08-18T18:52:13.119Z,48.84
2022-08-18T18:54:54.543Z,48.97
2022-08-18T18:57:45.087Z,49.18
2022-08-18T19:00:19.773Z,49.02
2022-08-18T19:03:06.057Z,48.85
2022-08-18T19:05:34.564Z,49.46
2022-08-18T19:08:37.367Z,49.25
2022-08-18T19:11:10.552Z,49.41
2022-08-18T19:13:42.595Z,49.14
2022-08-18T19:16:23.628Z,49.28
2022-08-18T19:18:57.937Z,49.54
2022-08-18T19:22:03.353Z,49.25
2022-08-18T19:24:34.988Z,49.51
2022-08-18T19:27:04.044Z,49.70
2022-08-18T19:29:41.187Z,50.13
2022-08-18T19:32:17.151Z,50.56
2022-08-18T19:34:51.333Z,50.84
2022-08-18T19:37:27.478Z,50.60
2022-08-18T19:40:09.687Z,50.79
2022-08-18T19:42:42.770Z,50.99
2022-08-18T19:45:30.045Z,50.75
2022-08-18T19:48:18.351Z,51.07
2022-08-18T19:50:58.404Z,51.04
2022-08-18T19:53:39.550Z,50.96
2022-08-18T19:56:25.144Z,50.93
2022-08-18T19:59:15.670Z,51.21
2022-08-18T20:02:05.521Z,51.61
2022-08-18T20:04:32.586Z,51.74
2022-08-18T20:07:00.177Z,51.19
2022-08-18T20:09:33.183Z,51.68
2022-08-18T20:12:01.514Z,51.54
2022-08-18T20:14:32.753Z,51.77
2022-08-18T20:17:12.991Z,51.89
2022-08-18T20:19:42.964Z,51.64
2022-08-18T20:22:28.532Z,52.02
2022-08-18T20:25:06.208Z,51.94
2022-08-18T20:27:39.240Z,52.38
2022-08-18T20:30:21.372Z,52.30
2022-08-18T20:33:08.209Z,51.96
2022-08-18T20:35:46.837Z,52.13
2022-08-18T20:38:14.995Z,52.23
2022-08-18T20:40:43.623Z,52.70
2022-08-18T20:43:26.062Z,52.14
2022-08-18T20:46:08.227Z,52.23
2022-08-18T20:48:45.731Z,52.46
2022-08-18T20:51:15.440Z,52.53
2022-08-18T20:53:49.872Z,52.64
2022-08-18T20:56:43.652Z,52.56
2022-08-18T20:59:40.858Z,52.50
2022-08-18T21:02:23.263Z,52.99
2022-08-18T21:04:52.462Z,53.29
2022-08-18T21:07:36.836Z,53.16
2022-08-18T21:10:12.228Z,52.84
2022-08-18T21:12:40.323Z,53.05
2022-08-18T21:15:19.427Z,53.33
2022-08-18T21:17:46.473Z,53.08
2022-08-18T21:20:16.452Z,53.25
2022-08-18T21:22:45.783Z,52.78
2022-08-18T21:25:14.143Z,53.35
2022-08-18T21:27:42.167Z,53.46
2022-08-18T21:30:25.483Z,53.45
2022-08-18T21:32:52.473Z,53.37
2022-08-18T21:35:19.230Z,53.48
2022-08-18T21:37:55.935Z,53.52
2022-08-18T21:40:31.137Z,53.31
2022-08-18T21:42:58.630Z,53.64
2022-08-18T21:45:25.770Z,53.57
2022-08-18T21:47:53.786Z,53.89
2022-08-18T21:50:23.323Z,53.71
2022-08-18T21:52:52.776Z,54.10
2022-08-18T21:55:21.883Z,53.98
2022-08-18T21:57:50.722Z,54.02
2022-08-18T22:00:28.537Z,54.02
2022-08-18T22:03:13.807Z,54.02
2022-08-18T22:05:55.911Z,54.34
2022-08-18T22:08:34.211Z,54.21
2022-08-18T22:11:59.696Z,54.57
2022-08-18T22:14:24.105Z,54.78
2022-08-18T22:16:54.006Z,54.68
2022-08-18T22:19:20.623Z,55.15
2022-08-18T22:21:50.188Z,54.73
2022-08-18T22:24:21.627Z,54.70
2022-08-18T22:26:50.685Z,55.31
2022-08-18T22:29:17.736Z,55.03
2022-08-18T22:31:46.544Z,55.22
2022-08-18T22:34:27.702Z,55.49
2022-08-18T22:36:56.244Z,54.98
2022-08-18T22:39:24.892Z,55.92
2022-08-18T22:41:51.547Z,55.91
2022-08-18T22:44:18.168Z,55.73
2022-08-18T22:46:44.987Z,55.97
2022-08-18T22:49:11.630Z,56.01
2022-08-18T22:51:38.342Z,55.81
2022-08-18T22:54:08.422Z,55.83
2022-08-18T22:56:35.773Z,55.40
2022-08-18T22:59:15.797Z,56.13
2022-08-18T23:01:45.280Z,56.28
2022-08-18T23:04:11.990Z,56.65
2022-08-18T23:06:38.770Z,56.63
2022-08-18T23:09:05.667Z,56.25
2022-08-18T23:11:32.296Z,56.68
2022-08-18T23:14:02.536Z,56.14
2022-08-18T23:16:31.719Z,56.66
2022-08-18T23:19:02.189Z,56.81
2022-08-18T23:21:33.799Z,56.72
2022-08-18T23:24:01.782Z,56.78
2022-08-18T23:26:29.547Z,56.96
2022-08-18T23:28:57.364Z,57.08
2022-08-18T23:31:23.990Z,57.13
2022-08-18T23:33:50.677Z,57.34
2022-08-18T23:36:18.019Z,57.35
2022-08-18T23:38:45.075Z,57.65
2022-08-18T23:41:13.075Z,57.28
2022-08-18T23:43:39.843Z,57.81
2022-08-18T23:46:15.424Z,57.39
2022-08-18T23:48:50.412Z,57.83
2022-08-18T23:51:29.393Z,57.78
2022-08-18T23:54:00.135Z,58.71
2022-08-18T23:56:27.610Z,58.55
2022-08-18T23:58:57.032Z,58.61
